Airfield :
LOGIN :

Register | Disclaimer

   EN    FR    IT 

 










Legend :    VFR   Marginal VFR   IFR   Intensive IFR   Very Intensive IFR
Visi :
Ceiling :
>= 8 km
>= 3000ft
5 to 8 km
1000 to 3000 ft
1500m to 5 km
500 to 1000 ft
800 to 1500m
200 to 500 ft
< 800m
< 200 ft
Symbols :   Thunderstorms  Fog  Heavy snow  Heavy precipitations  Wind > 20 kt
SIGMETs :     Misc.  Thunderstorms  Icing  Turbulence  Mountain Waves  Volcanic Ashes






- Airport Elevation : 52 ft
- IATA code : RNN


EKRN - Bornholm Ronne

CURRENT METAR :
  • 230250Z AUTO 24014KT 9999 FEW016/// SCT180/// 04/03 Q0996

EXPIRED METARs :
  • 230220Z AUTO 24017KT 9999 BKN190/// 04/03 Q0996
  • 230150Z AUTO 24017KT 9999 NCD 04/03 Q0996
  • 230120Z AUTO 24017KT 9999 BKN024/// 04/02 Q0996
  • 230050Z AUTO 23018KT 9999 SCT021/// 04/02 Q0995
  • 230020Z AUTO 23019KT 9999 NCD 04/02 Q0995

Expired Forecast.



MET'MAP, your aeronautical weather chart ! - Copyright ORBIFLY December 2007 - Disclaimer

ORBIFLY MET'MAP TEAM :

Programming & Development : Alexandra Zaïnal
Concept & original design : Baudouin d'Aumeries
Assistance for programming : Marc-Olivier Méhu
Technical & hardware support : Manuel Goepfert

Contact : metmap@orbifly.com




SOURCES & CREDITS :

   NOAA